sensor_id;sensor_type;location;lat;lon;timestamp;pressure;altitude;pressure_sealevel;temperature;humidity
59106;BME280;44891;50.204;8.132;2023-03-15T00:00:26;97829.13;;;1.82;90.18
59106;BME280;44891;50.204;8.132;2023-03-15T00:04:28;97828.13;;;1.83;90.62
59106;BME280;44891;50.204;8.132;2023-03-15T00:08:31;97829.84;;;1.69;91.63
59106;BME280;44891;50.204;8.132;2023-03-15T00:12:33;97838.03;;;1.73;90.78
59106;BME280;44891;50.204;8.132;2023-03-15T00:16:36;97829.69;;;1.43;92.69
59106;BME280;44891;50.204;8.132;2023-03-15T00:20:38;97837.94;;;1.53;92.55
59106;BME280;44891;50.204;8.132;2023-03-15T00:24:40;97838.09;;;1.51;91.92
59106;BME280;44891;50.204;8.132;2023-03-15T00:28:42;97837.63;;;1.41;91.96
59106;BME280;44891;50.204;8.132;2023-03-15T00:32:45;97852.47;;;1.26;92.48
59106;BME280;44891;50.204;8.132;2023-03-15T00:36:47;97853.63;;;1.23;93.25
59106;BME280;44891;50.204;8.132;2023-03-15T00:40:49;97863.25;;;1.08;93.63
59106;BME280;44891;50.204;8.132;2023-03-15T00:44:51;97862.88;;;1.11;94.21
59106;BME280;44891;50.204;8.132;2023-03-15T00:48:54;97868.38;;;1.01;94.56
59106;BME280;44891;50.204;8.132;2023-03-15T00:52:56;97867.56;;;1.01;93.08
59106;BME280;44891;50.204;8.132;2023-03-15T00:56:58;97871.19;;;1.06;93.33
59106;BME280;44891;50.204;8.132;2023-03-15T01:01:03;97859.69;;;1.09;92.10
59106;BME280;44891;50.204;8.132;2023-03-15T01:05:07;97853.25;;;1.05;91.55
59106;BME280;44891;50.204;8.132;2023-03-15T01:09:09;97845.22;;;1.15;91.20
59106;BME280;44891;50.204;8.132;2023-03-15T01:13:12;97859.78;;;1.22;89.97
59106;BME280;44891;50.204;8.132;2023-03-15T01:17:14;97868.94;;;1.25;88.85
59106;BME280;44891;50.204;8.132;2023-03-15T01:21:18;97878.94;;;1.28;89.51
59106;BME280;44891;50.204;8.132;2023-03-15T01:25:21;97879.41;;;1.38;89.25
59106;BME280;44891;50.204;8.132;2023-03-15T01:29:23;97882.38;;;1.35;88.85
59106;BME280;44891;50.204;8.132;2023-03-15T01:33:25;97890.50;;;1.32;88.74
59106;BME280;44891;50.204;8.132;2023-03-15T01:37:28;97889.75;;;1.38;87.89
59106;BME280;44891;50.204;8.132;2023-03-15T01:41:30;97890.72;;;1.37;86.92
59106;BME280;44891;50.204;8.132;2023-03-15T01:49:56;97889.88;;;1.30;87.74
59106;BME280;44891;50.204;8.132;2023-03-15T01:54:01;97902.75;;;1.23;88.86
59106;BME280;44891;50.204;8.132;2023-03-15T01:58:07;97902.03;;;1.29;88.32
59106;BME280;44891;50.204;8.132;2023-03-15T02:02:14;97896.03;;;1.29;87.92
59106;BME280;44891;50.204;8.132;2023-03-15T02:06:17;97903.19;;;1.27;88.81
59106;BME280;44891;50.204;8.132;2023-03-15T02:10:29;97888.97;;;1.16;88.66
59106;BME280;44891;50.204;8.132;2023-03-15T02:14:34;97889.97;;;1.15;88.37
59106;BME280;44891;50.204;8.132;2023-03-15T02:18:37;97892.47;;;1.30;88.20
59106;BME280;44891;50.204;8.132;2023-03-15T02:22:40;97897.41;;;1.25;88.25
59106;BME280;44891;50.204;8.132;2023-03-15T02:26:49;97889.28;;;1.28;87.29
59106;BME280;44891;50.204;8.132;2023-03-15T02:30:53;97899.06;;;1.11;87.90
59106;BME280;44891;50.204;8.132;2023-03-15T02:34:55;97897.66;;;1.30;86.48
59106;BME280;44891;50.204;8.132;2023-03-15T02:38:57;97897.97;;;1.20;88.02
59106;BME280;44891;50.204;8.132;2023-03-15T02:42:59;97919.72;;;1.26;87.56
59106;BME280;44891;50.204;8.132;2023-03-15T02:47:05;97924.56;;;1.14;88.01
59106;BME280;44891;50.204;8.132;2023-03-15T02:51:15;97939.56;;;1.04;89.32
59106;BME280;44891;50.204;8.132;2023-03-15T02:55:17;97936.13;;;1.18;88.63
59106;BME280;44891;50.204;8.132;2023-03-15T02:59:21;97936.63;;;1.28;87.32
59106;BME280;44891;50.204;8.132;2023-03-15T03:03:24;97929.44;;;1.24;87.15
59106;BME280;44891;50.204;8.132;2023-03-15T03:07:26;97950.50;;;1.21;88.73
59106;BME280;44891;50.204;8.132;2023-03-15T03:11:34;97951.34;;;1.28;88.23
59106;BME280;44891;50.204;8.132;2023-03-15T03:15:35;97949.00;;;1.12;88.80
59106;BME280;44891;50.204;8.132;2023-03-15T03:19:39;97952.09;;;1.22;87.98
59106;BME280;44891;50.204;8.132;2023-03-15T03:23:41;97955.28;;;1.24;87.88
59106;BME280;44891;50.204;8.132;2023-03-15T03:27:46;97952.56;;;1.32;87.54
59106;BME280;44891;50.204;8.132;2023-03-15T03:31:49;97952.44;;;1.19;88.28
59106;BME280;44891;50.204;8.132;2023-03-15T03:35:59;97955.28;;;1.24;89.00
59106;BME280;44891;50.204;8.132;2023-03-15T03:40:03;97950.63;;;1.34;88.19
59106;BME280;44891;50.204;8.132;2023-03-15T03:44:07;97957.53;;;1.27;89.16
59106;BME280;44891;50.204;8.132;2023-03-15T03:48:11;97964.22;;;1.21;89.40
59106;BME280;44891;50.204;8.132;2023-03-15T03:52:15;97975.91;;;1.17;89.73
59106;BME280;44891;50.204;8.132;2023-03-15T03:56:18;97979.06;;;1.13;91.08
59106;BME280;44891;50.204;8.132;2023-03-15T04:00:20;97973.91;;;1.13;90.17
59106;BME280;44891;50.204;8.132;2023-03-15T04:04:22;97982.25;;;1.15;89.99
59106;BME280;44891;50.204;8.132;2023-03-15T04:08:27;97983.13;;;1.22;89.94
59106;BME280;44891;50.204;8.132;2023-03-15T04:12:29;97987.03;;;1.32;89.15
59106;BME280;44891;50.204;8.132;2023-03-15T04:16:32;97984.66;;;1.38;88.56
59106;BME280;44891;50.204;8.132;2023-03-15T04:20:38;97985.03;;;1.34;88.01
59106;BME280;44891;50.204;8.132;2023-03-15T04:24:47;97994.72;;;1.26;89.13
59106;BME280;44891;50.204;8.132;2023-03-15T04:29:11;97982.53;;;1.20;89.49
59106;BME280;44891;50.204;8.132;2023-03-15T04:33:30;97979.00;;;1.27;89.81
59106;BME280;44891;50.204;8.132;2023-03-15T04:38:04;97979.06;;;1.34;90.21
59106;BME280;44891;50.204;8.132;2023-03-15T04:42:34;97988.91;;;1.45;89.21
59106;BME280;44891;50.204;8.132;2023-03-15T04:46:47;97988.38;;;1.50;89.80
59106;BME280;44891;50.204;8.132;2023-03-15T04:51:11;97991.41;;;1.53;89.31
59106;BME280;44891;50.204;8.132;2023-03-15T04:55:23;97996.84;;;1.65;88.97
59106;BME280;44891;50.204;8.132;2023-03-15T05:00:02;98011.59;;;1.64;90.33
59106;BME280;44891;50.204;8.132;2023-03-15T05:04:27;98003.06;;;1.71;90.23
59106;BME280;44891;50.204;8.132;2023-03-15T05:08:49;98011.72;;;1.56;93.78
59106;BME280;44891;50.204;8.132;2023-03-15T05:13:19;98015.66;;;1.31;97.24
59106;BME280;44891;50.204;8.132;2023-03-15T05:17:35;98006.28;;;1.51;98.80
59106;BME280;44891;50.204;8.132;2023-03-15T05:21:51;98007.72;;;1.54;99.78
59106;BME280;44891;50.204;8.132;2023-03-15T05:26:12;98006.97;;;1.60;100.00
59106;BME280;44891;50.204;8.132;2023-03-15T05:30:24;97999.38;;;1.58;100.00
59106;BME280;44891;50.204;8.132;2023-03-15T05:34:42;98009.97;;;1.63;100.00
59106;BME280;44891;50.204;8.132;2023-03-15T05:38:58;98011.66;;;1.50;100.00
59106;BME280;44891;50.204;8.132;2023-03-15T05:43:24;98013.97;;;1.45;100.00
59106;BME280;44891;50.204;8.132;2023-03-15T05:48:01;98021.59;;;1.46;100.00
59106;BME280;44891;50.204;8.132;2023-03-15T05:52:24;98021.81;;;1.30;100.00
59106;BME280;44891;50.204;8.132;2023-03-15T05:56:40;98039.44;;;1.41;100.00
59106;BME280;44891;50.204;8.132;2023-03-15T06:01:01;98042.91;;;1.48;100.00
59106;BME280;44891;50.204;8.132;2023-03-15T06:05:28;98044.22;;;1.59;100.00
59106;BME280;44891;50.204;8.132;2023-03-15T06:09:36;98048.94;;;1.55;100.00
59106;BME280;44891;50.204;8.132;2023-03-15T06:13:38;98052.03;;;1.66;100.00
59106;BME280;44891;50.204;8.132;2023-03-15T06:17:48;98056.38;;;1.44;100.00
59106;BME280;44891;50.204;8.132;2023-03-15T06:21:51;98063.00;;;1.46;100.00
59106;BME280;44891;50.204;8.132;2023-03-15T06:26:02;98063.97;;;1.67;100.00
59106;BME280;44891;50.204;8.132;2023-03-15T06:30:06;98071.00;;;1.73;100.00
59106;BME280;44891;50.204;8.132;2023-03-15T06:34:08;98077.53;;;1.69;100.00
59106;BME280;44891;50.204;8.132;2023-03-15T06:38:11;98074.81;;;1.77;100.00
59106;BME280;44891;50.204;8.132;2023-03-15T06:42:16;98077.31;;;1.85;100.00
59106;BME280;44891;50.204;8.132;2023-03-15T06:46:18;98077.16;;;1.93;100.00
59106;BME280;44891;50.204;8.132;2023-03-15T06:50:20;98071.00;;;1.94;100.00
59106;BME280;44891;50.204;8.132;2023-03-15T06:54:22;98068.03;;;1.97;99.65
59106;BME280;44891;50.204;8.132;2023-03-15T06:58:25;98073.69;;;2.07;98.69
59106;BME280;44891;50.204;8.132;2023-03-15T07:02:27;98089.09;;;2.15;99.49
59106;BME280;44891;50.204;8.132;2023-03-15T07:06:33;98098.53;;;2.23;98.75
59106;BME280;44891;50.204;8.132;2023-03-15T07:10:35;98099.31;;;2.45;97.32
59106;BME280;44891;50.204;8.132;2023-03-15T07:14:38;98104.53;;;2.52;95.98
59106;BME280;44891;50.204;8.132;2023-03-15T07:18:40;98113.59;;;2.69;94.35
59106;BME280;44891;50.204;8.132;2023-03-15T07:22:41;98110.06;;;2.77;92.33
59106;BME280;44891;50.204;8.132;2023-03-15T07:26:45;98121.09;;;2.85;92.94
59106;BME280;44891;50.204;8.132;2023-03-15T07:30:55;98128.22;;;2.77;92.97
59106;BME280;44891;50.204;8.132;2023-03-15T07:34:57;98137.47;;;2.86;92.73
59106;BME280;44891;50.204;8.132;2023-03-15T07:39:00;98131.31;;;2.93;92.18
59106;BME280;44891;50.204;8.132;2023-03-15T07:43:02;98150.38;;;3.14;91.89
59106;BME280;44891;50.204;8.132;2023-03-15T07:47:06;98153.97;;;3.13;92.28
59106;BME280;44891;50.204;8.132;2023-03-15T07:51:07;98151.31;;;2.99;92.78
59106;BME280;44891;50.204;8.132;2023-03-15T07:55:09;98165.63;;;2.95;93.42
59106;BME280;44891;50.204;8.132;2023-03-15T07:59:11;98172.06;;;2.99;93.23
59106;BME280;44891;50.204;8.132;2023-03-15T08:03:15;98185.66;;;3.08;93.41
59106;BME280;44891;50.204;8.132;2023-03-15T08:07:16;98183.84;;;3.02;94.86
59106;BME280;44891;50.204;8.132;2023-03-15T08:11:18;98194.25;;;3.09;94.89
59106;BME280;44891;50.204;8.132;2023-03-15T08:15:20;98203.53;;;2.96;96.23
59106;BME280;44891;50.204;8.132;2023-03-15T08:19:23;98202.00;;;3.02;96.52
59106;BME280;44891;50.204;8.132;2023-03-15T08:23:25;98213.66;;;2.85;97.27
59106;BME280;44891;50.204;8.132;2023-03-15T08:27:27;98212.88;;;2.84;97.87
59106;BME280;44891;50.204;8.132;2023-03-15T08:31:29;98214.50;;;2.92;98.37
59106;BME280;44891;50.204;8.132;2023-03-15T08:35:33;98237.47;;;2.95;98.23
59106;BME280;44891;50.204;8.132;2023-03-15T08:39:35;98230.22;;;3.12;97.72
59106;BME280;44891;50.204;8.132;2023-03-15T08:43:36;98240.59;;;3.12;97.34
59106;BME280;44891;50.204;8.132;2023-03-15T08:47:38;98240.53;;;3.33;96.80
59106;BME280;44891;50.204;8.132;2023-03-15T08:51:41;98251.13;;;3.38;95.93
59106;BME280;44891;50.204;8.132;2023-03-15T08:55:45;98259.41;;;3.55;94.89
59106;BME280;44891;50.204;8.132;2023-03-15T08:59:49;98256.38;;;3.45;93.47
59106;BME280;44891;50.204;8.132;2023-03-15T09:03:51;98267.78;;;3.50;92.38
59106;BME280;44891;50.204;8.132;2023-03-15T09:07:54;98266.44;;;3.61;92.66
59106;BME280;44891;50.204;8.132;2023-03-15T09:11:56;98272.06;;;3.65;90.15
59106;BME280;44891;50.204;8.132;2023-03-15T09:15:57;98270.66;;;3.69;90.20
59106;BME280;44891;50.204;8.132;2023-03-15T09:19:59;98273.81;;;3.58;91.94
59106;BME280;44891;50.204;8.132;2023-03-15T09:24:03;98279.03;;;3.64;92.63
59106;BME280;44891;50.204;8.132;2023-03-15T09:28:05;98291.13;;;3.44;93.87
59106;BME280;44891;50.204;8.132;2023-03-15T09:32:08;98299.09;;;3.49;93.96
59106;BME280;44891;50.204;8.132;2023-03-15T09:36:11;98306.78;;;3.57;94.09
59106;BME280;44891;50.204;8.132;2023-03-15T09:40:16;98307.19;;;3.61;95.28
59106;BME280;44891;50.204;8.132;2023-03-15T09:44:26;98316.31;;;3.85;95.47
59106;BME280;44891;50.204;8.132;2023-03-15T09:48:33;98312.19;;;3.97;94.18
59106;BME280;44891;50.204;8.132;2023-03-15T09:52:38;98327.06;;;4.16;94.15
59106;BME280;44891;50.204;8.132;2023-03-15T09:56:48;98334.50;;;4.32;93.77
59106;BME280;44891;50.204;8.132;2023-03-15T10:00:53;98338.28;;;4.23;91.90
59106;BME280;44891;50.204;8.132;2023-03-15T10:04:57;98334.88;;;4.23;88.33
59106;BME280;44891;50.204;8.132;2023-03-15T10:09:02;98336.06;;;4.20;85.13
59106;BME280;44891;50.204;8.132;2023-03-15T10:13:07;98343.81;;;4.14;84.46
59106;BME280;44891;50.204;8.132;2023-03-15T10:17:14;98338.66;;;4.20;86.60
59106;BME280;44891;50.204;8.132;2023-03-15T10:21:23;98337.59;;;4.08;88.26
59106;BME280;44891;50.204;8.132;2023-03-15T10:25:28;98336.78;;;4.07;89.00
59106;BME280;44891;50.204;8.132;2023-03-15T10:29:31;98337.88;;;4.26;86.50
59106;BME280;44891;50.204;8.132;2023-03-15T10:33:34;98335.91;;;4.35;85.67
59106;BME280;44891;50.204;8.132;2023-03-15T10:37:36;98337.38;;;4.51;86.48
59106;BME280;44891;50.204;8.132;2023-03-15T10:41:39;98326.81;;;4.85;85.23
59106;BME280;44891;50.204;8.132;2023-03-15T10:45:42;98328.84;;;5.36;81.04
59106;BME280;44891;50.204;8.132;2023-03-15T10:49:47;98333.81;;;5.64;79.46
59106;BME280;44891;50.204;8.132;2023-03-15T10:53:55;98346.44;;;5.67;77.30
59106;BME280;44891;50.204;8.132;2023-03-15T10:58:00;98336.25;;;6.31;76.98
59106;BME280;44891;50.204;8.132;2023-03-15T11:02:21;98345.59;;;6.00;72.46
59106;BME280;44891;50.204;8.132;2023-03-15T11:06:25;98344.94;;;6.18;72.70
59106;BME280;44891;50.204;8.132;2023-03-15T11:10:28;98348.44;;;6.43;70.07
59106;BME280;44891;50.204;8.132;2023-03-15T11:14:35;98350.50;;;6.35;72.05
59106;BME280;44891;50.204;8.132;2023-03-15T11:18:45;98356.41;;;6.04;73.00
59106;BME280;44891;50.204;8.132;2023-03-15T11:22:48;98363.28;;;4.99;74.79
59106;BME280;44891;50.204;8.132;2023-03-15T11:26:51;98362.75;;;4.49;77.53
59106;BME280;44891;50.204;8.132;2023-03-15T11:30:54;98363.16;;;4.46;79.48
59106;BME280;44891;50.204;8.132;2023-03-15T11:35:01;98369.19;;;4.59;79.56
59106;BME280;44891;50.204;8.132;2023-03-15T11:39:04;98375.44;;;4.78;77.97
59106;BME280;44891;50.204;8.132;2023-03-15T11:43:07;98380.94;;;5.23;75.46
59106;BME280;44891;50.204;8.132;2023-03-15T11:47:13;98393.53;;;5.33;74.51
59106;BME280;44891;50.204;8.132;2023-03-15T11:51:18;98387.28;;;4.87;71.98
59106;BME280;44891;50.204;8.132;2023-03-15T11:55:22;98395.41;;;4.58;72.66
59106;BME280;44891;50.204;8.132;2023-03-15T11:59:26;98389.13;;;6.58;62.74
59106;BME280;44891;50.204;8.132;2023-03-15T12:03:30;98392.84;;;6.30;62.61
59106;BME280;44891;50.204;8.132;2023-03-15T12:07:39;98389.97;;;7.21;58.17
59106;BME280;44891;50.204;8.132;2023-03-15T12:11:57;98389.31;;;7.01;57.22
59106;BME280;44891;50.204;8.132;2023-03-15T12:15:59;98397.19;;;7.94;55.58
59106;BME280;44891;50.204;8.132;2023-03-15T12:20:04;98402.03;;;9.12;53.95
59106;BME280;44891;50.204;8.132;2023-03-15T12:24:14;98402.13;;;14.10;46.09
59106;BME280;44891;50.204;8.132;2023-03-15T12:28:18;98397.75;;;15.90;39.68
59106;BME280;44891;50.204;8.132;2023-03-15T12:32:21;98395.38;;;15.89;38.11
59106;BME280;44891;50.204;8.132;2023-03-15T12:36:33;98407.34;;;15.66;40.30
59106;BME280;44891;50.204;8.132;2023-03-15T12:49:26;98408.69;;;13.28;43.93
59106;BME280;44891;50.204;8.132;2023-03-15T12:57:46;98404.44;;;13.27;42.31
59106;BME280;44891;50.204;8.132;2023-03-15T13:01:49;98408.06;;;10.13;49.81
59106;BME280;44891;50.204;8.132;2023-03-15T13:05:55;98413.94;;;8.66;51.72
59106;BME280;44891;50.204;8.132;2023-03-15T13:10:04;98412.91;;;8.12;55.00
59106;BME280;44891;50.204;8.132;2023-03-15T13:18:28;98408.78;;;11.68;45.03
59106;BME280;44891;50.204;8.132;2023-03-15T13:22:36;98411.94;;;9.10;51.75
59106;BME280;44891;50.204;8.132;2023-03-15T13:26:49;98419.00;;;7.63;54.91
59106;BME280;44891;50.204;8.132;2023-03-15T13:30:55;98413.25;;;10.88;48.38
59106;BME280;44891;50.204;8.132;2023-03-15T13:34:58;98404.13;;;15.43;38.06
59106;BME280;44891;50.204;8.132;2023-03-15T13:39:08;98396.66;;;19.88;32.56
59106;BME280;44891;50.204;8.132;2023-03-15T13:43:11;98393.13;;;18.70;31.51
59106;BME280;44891;50.204;8.132;2023-03-15T13:47:17;98391.91;;;17.57;31.14
59106;BME280;44891;50.204;8.132;2023-03-15T13:51:22;98403.53;;;19.42;29.45
59106;BME280;44891;50.204;8.132;2023-03-15T13:55:28;98398.25;;;17.27;33.13
59106;BME280;44891;50.204;8.132;2023-03-15T13:59:34;98403.50;;;18.24;32.07
59106;BME280;44891;50.204;8.132;2023-03-15T14:03:38;98403.06;;;12.05;39.56
59106;BME280;44891;50.204;8.132;2023-03-15T14:07:43;98413.78;;;9.21;46.38
59106;BME280;44891;50.204;8.132;2023-03-15T14:11:51;98415.91;;;9.01;48.30
59106;BME280;44891;50.204;8.132;2023-03-15T14:16:01;98405.84;;;13.07;40.76
59106;BME280;44891;50.204;8.132;2023-03-15T14:20:04;98406.72;;;14.92;38.38
59106;BME280;44891;50.204;8.132;2023-03-15T14:24:11;98410.41;;;14.24;37.36
59106;BME280;44891;50.204;8.132;2023-03-15T14:28:16;98418.44;;;9.61;46.63
59106;BME280;44891;50.204;8.132;2023-03-15T14:32:22;98424.75;;;8.15;49.45
59106;BME280;44891;50.204;8.132;2023-03-15T14:36:28;98428.03;;;8.29;50.04
59106;BME280;44891;50.204;8.132;2023-03-15T14:40:31;98432.06;;;8.50;50.38
59106;BME280;44891;50.204;8.132;2023-03-15T14:44:36;98420.59;;;14.00;40.31
59106;BME280;44891;50.204;8.132;2023-03-15T14:48:38;98415.50;;;13.24;38.23
59106;BME280;44891;50.204;8.132;2023-03-15T14:52:40;98425.56;;;15.47;35.16
59106;BME280;44891;50.204;8.132;2023-03-15T14:56:43;98431.44;;;12.85;37.81
59106;BME280;44891;50.204;8.132;2023-03-15T15:00:47;98425.31;;;12.79;38.83
59106;BME280;44891;50.204;8.132;2023-03-15T15:04:49;98430.81;;;12.78;38.02
59106;BME280;44891;50.204;8.132;2023-03-15T15:08:51;98435.25;;;11.61;38.89
59106;BME280;44891;50.204;8.132;2023-03-15T15:12:56;98432.38;;;10.72;39.74
59106;BME280;44891;50.204;8.132;2023-03-15T15:16:59;98444.78;;;9.90;43.58
59106;BME280;44891;50.204;8.132;2023-03-15T15:21:02;98449.19;;;9.54;41.44
59106;BME280;44891;50.204;8.132;2023-03-15T15:25:07;98454.38;;;8.52;44.03
59106;BME280;44891;50.204;8.132;2023-03-15T15:29:10;98449.84;;;7.98;45.13
59106;BME280;44891;50.204;8.132;2023-03-15T15:33:13;98460.44;;;7.59;46.09
59106;BME280;44891;50.204;8.132;2023-03-15T15:37:15;98455.69;;;7.50;47.58
59106;BME280;44891;50.204;8.132;2023-03-15T15:41:18;98458.78;;;7.40;48.03
59106;BME280;44891;50.204;8.132;2023-03-15T15:45:23;98458.91;;;7.20;48.00
59106;BME280;44891;50.204;8.132;2023-03-15T15:49:26;98462.38;;;7.07;48.45
59106;BME280;44891;50.204;8.132;2023-03-15T15:53:29;98463.19;;;7.08;49.52
59106;BME280;44891;50.204;8.132;2023-03-15T15:57:32;98465.44;;;6.91;49.94
59106;BME280;44891;50.204;8.132;2023-03-15T16:01:34;98467.19;;;7.04;49.73
59106;BME280;44891;50.204;8.132;2023-03-15T16:05:37;98464.28;;;6.87;50.25
59106;BME280;44891;50.204;8.132;2023-03-15T16:09:39;98469.69;;;6.86;51.31
59106;BME280;44891;50.204;8.132;2023-03-15T16:13:42;98469.78;;;6.66;51.46
59106;BME280;44891;50.204;8.132;2023-03-15T16:17:45;98461.88;;;6.79;50.20
59106;BME280;44891;50.204;8.132;2023-03-15T16:21:49;98458.56;;;6.59;50.92
59106;BME280;44891;50.204;8.132;2023-03-15T16:25:53;98458.38;;;6.53;50.29
59106;BME280;44891;50.204;8.132;2023-03-15T16:29:56;98457.53;;;6.60;51.77
59106;BME280;44891;50.204;8.132;2023-03-15T16:33:58;98461.41;;;6.50;51.42
59106;BME280;44891;50.204;8.132;2023-03-15T16:38:03;98463.28;;;6.23;51.34
59106;BME280;44891;50.204;8.132;2023-03-15T16:42:08;98471.69;;;6.32;51.04
59106;BME280;44891;50.204;8.132;2023-03-15T16:46:12;98467.28;;;6.13;52.61
59106;BME280;44891;50.204;8.132;2023-03-15T16:50:14;98470.31;;;6.10;54.94
59106;BME280;44891;50.204;8.132;2023-03-15T16:54:18;98470.94;;;5.92;56.46
59106;BME280;44891;50.204;8.132;2023-03-15T16:58:20;98471.91;;;5.78;56.01
59106;BME280;44891;50.204;8.132;2023-03-15T17:02:23;98468.28;;;5.65;57.99
59106;BME280;44891;50.204;8.132;2023-03-15T17:06:25;98481.72;;;5.49;57.58
59106;BME280;44891;50.204;8.132;2023-03-15T17:10:29;98477.88;;;5.32;57.42
59106;BME280;44891;50.204;8.132;2023-03-15T17:14:32;98486.06;;;5.22;58.42
59106;BME280;44891;50.204;8.132;2023-03-15T17:18:34;98490.34;;;4.88;59.77
59106;BME280;44891;50.204;8.132;2023-03-15T17:22:36;98493.59;;;4.90;61.00
59106;BME280;44891;50.204;8.132;2023-03-15T17:26:40;98491.09;;;4.69;64.21
59106;BME280;44891;50.204;8.132;2023-03-15T17:30:42;98508.81;;;4.52;63.37
59106;BME280;44891;50.204;8.132;2023-03-15T17:34:44;98499.34;;;4.10;64.92
59106;BME280;44891;50.204;8.132;2023-03-15T17:38:46;98512.06;;;3.98;65.51
59106;BME280;44891;50.204;8.132;2023-03-15T17:42:50;98514.22;;;3.73;67.57
59106;BME280;44891;50.204;8.132;2023-03-15T17:46:52;98521.03;;;3.53;68.78
59106;BME280;44891;50.204;8.132;2023-03-15T17:50:54;98521.81;;;2.96;70.29
59106;BME280;44891;50.204;8.132;2023-03-15T17:54:56;98518.00;;;2.92;70.86
59106;BME280;44891;50.204;8.132;2023-03-15T17:58:59;98521.53;;;3.06;71.88
59106;BME280;44891;50.204;8.132;2023-03-15T18:03:01;98527.16;;;3.09;72.19
59106;BME280;44891;50.204;8.132;2023-03-15T18:07:03;98532.75;;;3.27;72.26
59106;BME280;44891;50.204;8.132;2023-03-15T18:11:09;98537.13;;;3.06;72.45
59106;BME280;44891;50.204;8.132;2023-03-15T18:15:16;98535.81;;;2.80;73.23
59106;BME280;44891;50.204;8.132;2023-03-15T18:19:18;98553.06;;;2.58;73.74
59106;BME280;44891;50.204;8.132;2023-03-15T18:23:19;98553.41;;;2.70;73.16
59106;BME280;44891;50.204;8.132;2023-03-15T18:27:21;98556.38;;;2.52;73.98
59106;BME280;44891;50.204;8.132;2023-03-15T18:31:25;98561.00;;;2.42;74.46
59106;BME280;44891;50.204;8.132;2023-03-15T18:35:27;98560.19;;;2.41;73.51
59106;BME280;44891;50.204;8.132;2023-03-15T18:39:29;98559.75;;;2.38;73.99
59106;BME280;44891;50.204;8.132;2023-03-15T18:43:31;98556.81;;;2.41;74.12
59106;BME280;44891;50.204;8.132;2023-03-15T18:47:35;98563.97;;;2.01;74.53
59106;BME280;44891;50.204;8.132;2023-03-15T18:51:37;98571.56;;;1.57;76.78
59106;BME280;44891;50.204;8.132;2023-03-15T18:55:38;98565.00;;;1.92;76.32
59106;BME280;44891;50.204;8.132;2023-03-15T18:59:40;98563.63;;;1.81;76.37
59106;BME280;44891;50.204;8.132;2023-03-15T19:03:43;98576.28;;;1.76;76.88
59106;BME280;44891;50.204;8.132;2023-03-15T19:07:46;98575.59;;;1.82;76.80
59106;BME280;44891;50.204;8.132;2023-03-15T19:11:48;98588.66;;;1.66;77.84
59106;BME280;44891;50.204;8.132;2023-03-15T19:15:50;98594.47;;;1.68;78.03
59106;BME280;44891;50.204;8.132;2023-03-15T19:19:53;98586.50;;;1.47;78.21
59106;BME280;44891;50.204;8.132;2023-03-15T19:23:54;98593.41;;;1.54;79.65
59106;BME280;44891;50.204;8.132;2023-03-15T19:27:56;98586.63;;;1.53;79.23
59106;BME280;44891;50.204;8.132;2023-03-15T19:31:58;98591.81;;;1.53;79.42
59106;BME280;44891;50.204;8.132;2023-03-15T19:36:01;98596.00;;;1.54;78.51
59106;BME280;44891;50.204;8.132;2023-03-15T19:40:04;98605.41;;;1.16;80.23
59106;BME280;44891;50.204;8.132;2023-03-15T19:44:08;98596.13;;;1.30;80.44
59106;BME280;44891;50.204;8.132;2023-03-15T19:48:10;98601.72;;;1.11;80.72
59106;BME280;44891;50.204;8.132;2023-03-15T19:52:13;98593.22;;;1.25;80.77
59106;BME280;44891;50.204;8.132;2023-03-15T19:56:15;98596.75;;;1.32;80.91
59106;BME280;44891;50.204;8.132;2023-03-15T20:00:17;98607.38;;;1.14;80.82
59106;BME280;44891;50.204;8.132;2023-03-15T20:04:20;98595.69;;;1.26;81.11
59106;BME280;44891;50.204;8.132;2023-03-15T20:08:23;98600.72;;;1.20;81.26
59106;BME280;44891;50.204;8.132;2023-03-15T20:12:25;98610.28;;;1.11;80.08
59106;BME280;44891;50.204;8.132;2023-03-15T20:16:27;98610.53;;;1.32;81.09
59106;BME280;44891;50.204;8.132;2023-03-15T20:20:29;98610.84;;;1.29;80.48
59106;BME280;44891;50.204;8.132;2023-03-15T20:24:32;98615.16;;;1.06;80.16
59106;BME280;44891;50.204;8.132;2023-03-15T20:28:36;98622.44;;;1.02;81.72
59106;BME280;44891;50.204;8.132;2023-03-15T20:32:38;98617.19;;;1.19;81.23
59106;BME280;44891;50.204;8.132;2023-03-15T20:36:40;98628.63;;;0.93;82.36
59106;BME280;44891;50.204;8.132;2023-03-15T20:40:43;98635.66;;;1.16;81.59
59106;BME280;44891;50.204;8.132;2023-03-15T20:44:45;98625.34;;;1.07;81.56
59106;BME280;44891;50.204;8.132;2023-03-15T20:48:47;98623.56;;;1.08;82.05
59106;BME280;44891;50.204;8.132;2023-03-15T20:52:49;98634.25;;;0.97;82.16
59106;BME280;44891;50.204;8.132;2023-03-15T20:56:52;98630.69;;;0.98;82.04
59106;BME280;44891;50.204;8.132;2023-03-15T21:00:59;98630.25;;;0.86;82.34
59106;BME280;44891;50.204;8.132;2023-03-15T21:05:02;98639.75;;;0.94;82.14
59106;BME280;44891;50.204;8.132;2023-03-15T21:09:04;98634.78;;;0.76;82.65
59106;BME280;44891;50.204;8.132;2023-03-15T21:13:08;98632.31;;;0.91;82.95
59106;BME280;44891;50.204;8.132;2023-03-15T21:17:10;98644.13;;;0.93;82.60
59106;BME280;44891;50.204;8.132;2023-03-15T21:21:13;98641.09;;;0.81;82.37
59106;BME280;44891;50.204;8.132;2023-03-15T21:25:15;98629.81;;;0.66;82.55
59106;BME280;44891;50.204;8.132;2023-03-15T21:29:19;98627.38;;;0.65;83.09
59106;BME280;44891;50.204;8.132;2023-03-15T21:33:21;98633.38;;;0.49;84.38
59106;BME280;44891;50.204;8.132;2023-03-15T21:37:23;98645.31;;;0.66;83.67
59106;BME280;44891;50.204;8.132;2023-03-15T21:41:25;98649.88;;;0.40;83.18
59106;BME280;44891;50.204;8.132;2023-03-15T21:45:28;98632.72;;;0.39;83.48
59106;BME280;44891;50.204;8.132;2023-03-15T21:49:30;98635.78;;;0.50;83.60
59106;BME280;44891;50.204;8.132;2023-03-15T21:53:33;98641.28;;;0.39;84.08
59106;BME280;44891;50.204;8.132;2023-03-15T21:57:35;98640.97;;;0.02;85.81
59106;BME280;44891;50.204;8.132;2023-03-15T22:01:38;98630.31;;;0.37;84.89
59106;BME280;44891;50.204;8.132;2023-03-15T22:05:40;98630.31;;;0.37;83.78
59106;BME280;44891;50.204;8.132;2023-03-15T22:09:42;98621.28;;;0.41;83.32
59106;BME280;44891;50.204;8.132;2023-03-15T22:13:43;98624.50;;;0.11;83.90